Timberline Lodge, Oregon
Current Conditions -  °F | °C
As of 5:59 PM on Friday 28 Nov 2014 (Local Time) from K4S2 Reporting Station
Moderate Rain Moderate Rain  
Wind Chill: 52°   Ceiling: 3300
Heat Index: 52°   Visibility: 5mi
Dew Point: 48°   Wind: 6mph
Humidity: 88%   Direction: 190°S
Pressure: 29.39"   Gusts: NA
Location:  45.2658°N, 121.797°W
Report Text: K4S2 290159Z AUTO 19005KT 5SM RA SCT028 BKN033 OVC046 11/09 A2939 RMK AO2 P0015 SLP967 T01100090
Loading
Personal Weather Stations






























Interactive Weather Map New forecast layout! Learn more

10-Day Weather Forecast

Advertisements
Track Severe Weather on mobile